sensor_id;sensor_type;location;lat;lon;timestamp;temperature;humidity
27978;DHT22;15314;49.248;6.968;2023-07-29T00:00:08;19.60;99.90
27978;DHT22;15314;49.248;6.968;2023-07-29T00:01:09;19.60;99.90
27978;DHT22;15314;49.248;6.968;2023-07-29T00:02:10;19.60;99.90
27978;DHT22;15314;49.248;6.968;2023-07-29T00:03:10;19.60;99.90
27978;DHT22;15314;49.248;6.968;2023-07-29T00:04:11;19.70;99.90
27978;DHT22;15314;49.248;6.968;2023-07-29T00:05:12;19.70;99.90
27978;DHT22;15314;49.248;6.968;2023-07-29T00:06:13;19.70;99.90
27978;DHT22;15314;49.248;6.968;2023-07-29T00:07:13;19.70;99.90
27978;DHT22;15314;49.248;6.968;2023-07-29T00:08:14;19.70;99.90
27978;DHT22;15314;49.248;6.968;2023-07-29T00:09:15;19.80;99.90
27978;DHT22;15314;49.248;6.968;2023-07-29T00:10:16;19.80;99.90
27978;DHT22;15314;49.248;6.968;2023-07-29T00:11:16;19.70;99.90
27978;DHT22;15314;49.248;6.968;2023-07-29T00:12:17;19.80;99.90
27978;DHT22;15314;49.248;6.968;2023-07-29T00:13:18;19.80;99.90
27978;DHT22;15314;49.248;6.968;2023-07-29T00:14:18;19.80;99.90
27978;DHT22;15314;49.248;6.968;2023-07-29T00:15:19;19.80;99.90
27978;DHT22;15314;49.248;6.968;2023-07-29T00:16:20;19.80;99.90
27978;DHT22;15314;49.248;6.968;2023-07-29T00:17:22;19.80;99.90
27978;DHT22;15314;49.248;6.968;2023-07-29T00:18:23;19.90;99.90
27978;DHT22;15314;49.248;6.968;2023-07-29T00:19:23;19.90;99.90
27978;DHT22;15314;49.248;6.968;2023-07-29T00:20:24;19.90;99.90
27978;DHT22;15314;49.248;6.968;2023-07-29T00:21:25;19.90;99.90
27978;DHT22;15314;49.248;6.968;2023-07-29T00:22:25;19.90;99.90
27978;DHT22;15314;49.248;6.968;2023-07-29T00:23:26;19.90;99.90
27978;DHT22;15314;49.248;6.968;2023-07-29T00:24:27;19.80;99.90
27978;DHT22;15314;49.248;6.968;2023-07-29T00:25:27;19.80;99.90
27978;DHT22;15314;49.248;6.968;2023-07-29T00:26:28;19.80;99.90
27978;DHT22;15314;49.248;6.968;2023-07-29T00:27:32;19.90;99.90
27978;DHT22;15314;49.248;6.968;2023-07-29T00:28:33;19.90;99.90
27978;DHT22;15314;49.248;6.968;2023-07-29T00:29:33;19.90;99.90
27978;DHT22;15314;49.248;6.968;2023-07-29T00:30:34;19.80;99.90
27978;DHT22;15314;49.248;6.968;2023-07-29T00:31:34;19.80;99.90
27978;DHT22;15314;49.248;6.968;2023-07-29T00:32:35;19.90;99.90
27978;DHT22;15314;49.248;6.968;2023-07-29T00:33:36;19.90;99.90
27978;DHT22;15314;49.248;6.968;2023-07-29T00:34:37;19.90;99.90
27978;DHT22;15314;49.248;6.968;2023-07-29T00:35:37;19.90;99.90
27978;DHT22;15314;49.248;6.968;2023-07-29T00:36:38;19.90;99.90
27978;DHT22;15314;49.248;6.968;2023-07-29T00:37:39;19.90;99.90
27978;DHT22;15314;49.248;6.968;2023-07-29T00:38:40;20.00;99.90
27978;DHT22;15314;49.248;6.968;2023-07-29T00:39:41;19.90;99.90
27978;DHT22;15314;49.248;6.968;2023-07-29T00:40:41;19.90;99.90
27978;DHT22;15314;49.248;6.968;2023-07-29T00:41:42;20.00;99.90
27978;DHT22;15314;49.248;6.968;2023-07-29T00:42:42;20.00;99.90
27978;DHT22;15314;49.248;6.968;2023-07-29T00:43:43;20.00;99.90
27978;DHT22;15314;49.248;6.968;2023-07-29T00:44:44;20.00;99.90
27978;DHT22;15314;49.248;6.968;2023-07-29T00:45:45;20.00;99.90
27978;DHT22;15314;49.248;6.968;2023-07-29T00:46:48;20.00;99.90
27978;DHT22;15314;49.248;6.968;2023-07-29T00:47:50;19.90;99.90
27978;DHT22;15314;49.248;6.968;2023-07-29T00:48:50;19.90;99.90
27978;DHT22;15314;49.248;6.968;2023-07-29T00:49:51;19.90;99.90
27978;DHT22;15314;49.248;6.968;2023-07-29T00:50:52;19.90;99.90
27978;DHT22;15314;49.248;6.968;2023-07-29T00:51:53;19.90;99.90
27978;DHT22;15314;49.248;6.968;2023-07-29T00:52:54;19.90;99.90
27978;DHT22;15314;49.248;6.968;2023-07-29T00:53:55;19.90;99.90
27978;DHT22;15314;49.248;6.968;2023-07-29T00:54:56;19.80;99.90
27978;DHT22;15314;49.248;6.968;2023-07-29T00:55:57;19.80;99.90
27978;DHT22;15314;49.248;6.968;2023-07-29T00:56:57;19.80;99.90
27978;DHT22;15314;49.248;6.968;2023-07-29T00:57:58;19.70;99.90
27978;DHT22;15314;49.248;6.968;2023-07-29T00:58:59;19.70;99.90
27978;DHT22;15314;49.248;6.968;2023-07-29T01:00:02;19.80;99.90
27978;DHT22;15314;49.248;6.968;2023-07-29T01:01:05;19.80;99.90
27978;DHT22;15314;49.248;6.968;2023-07-29T01:02:05;19.80;99.90
27978;DHT22;15314;49.248;6.968;2023-07-29T01:03:06;19.70;99.90
27978;DHT22;15314;49.248;6.968;2023-07-29T01:04:07;19.80;99.90
27978;DHT22;15314;49.248;6.968;2023-07-29T01:05:08;19.80;99.90
27978;DHT22;15314;49.248;6.968;2023-07-29T01:06:17;19.80;99.90
27978;DHT22;15314;49.248;6.968;2023-07-29T01:09:04;19.70;99.90
27978;DHT22;15314;49.248;6.968;2023-07-29T01:13:23;19.80;99.90
27978;DHT22;15314;49.248;6.968;2023-07-29T01:14:38;19.80;99.90
27978;DHT22;15314;49.248;6.968;2023-07-29T01:16:00;19.80;99.90
27978;DHT22;15314;49.248;6.968;2023-07-29T01:17:04;19.90;99.90
27978;DHT22;15314;49.248;6.968;2023-07-29T01:18:23;20.00;99.90
27978;DHT22;15314;49.248;6.968;2023-07-29T01:20:33;20.00;99.90
27978;DHT22;15314;49.248;6.968;2023-07-29T01:21:35;20.00;99.90
27978;DHT22;15314;49.248;6.968;2023-07-29T01:22:37;20.10;99.90
27978;DHT22;15314;49.248;6.968;2023-07-29T01:23:40;20.10;99.90
27978;DHT22;15314;49.248;6.968;2023-07-29T01:24:40;20.10;99.90
27978;DHT22;15314;49.248;6.968;2023-07-29T01:25:41;20.10;99.90
27978;DHT22;15314;49.248;6.968;2023-07-29T01:26:42;20.10;99.90
27978;DHT22;15314;49.248;6.968;2023-07-29T01:27:44;20.10;99.90
27978;DHT22;15314;49.248;6.968;2023-07-29T01:28:45;20.10;99.90
27978;DHT22;15314;49.248;6.968;2023-07-29T01:29:45;20.10;99.90
27978;DHT22;15314;49.248;6.968;2023-07-29T01:30:49;20.10;99.90
27978;DHT22;15314;49.248;6.968;2023-07-29T01:31:54;20.10;99.90
27978;DHT22;15314;49.248;6.968;2023-07-29T01:33:09;20.10;99.90
27978;DHT22;15314;49.248;6.968;2023-07-29T01:34:32;20.10;99.90
27978;DHT22;15314;49.248;6.968;2023-07-29T01:35:58;20.10;99.90
27978;DHT22;15314;49.248;6.968;2023-07-29T01:37:02;20.10;99.90
27978;DHT22;15314;49.248;6.968;2023-07-29T01:38:12;20.00;99.90
27978;DHT22;15314;49.248;6.968;2023-07-29T01:39:17;20.00;99.90
27978;DHT22;15314;49.248;6.968;2023-07-29T01:40:18;20.00;99.90
27978;DHT22;15314;49.248;6.968;2023-07-29T01:41:20;20.00;99.90
27978;DHT22;15314;49.248;6.968;2023-07-29T01:42:22;20.00;99.90
27978;DHT22;15314;49.248;6.968;2023-07-29T01:43:23;20.00;99.90
27978;DHT22;15314;49.248;6.968;2023-07-29T01:44:26;20.00;99.90
27978;DHT22;15314;49.248;6.968;2023-07-29T01:45:28;20.00;99.90
27978;DHT22;15314;49.248;6.968;2023-07-29T01:46:33;20.00;99.90
27978;DHT22;15314;49.248;6.968;2023-07-29T01:47:34;19.90;99.90
27978;DHT22;15314;49.248;6.968;2023-07-29T01:48:34;19.90;99.90
27978;DHT22;15314;49.248;6.968;2023-07-29T01:49:35;19.90;99.90
27978;DHT22;15314;49.248;6.968;2023-07-29T01:50:36;20.00;99.90
27978;DHT22;15314;49.248;6.968;2023-07-29T01:51:36;19.90;99.90
27978;DHT22;15314;49.248;6.968;2023-07-29T01:52:37;19.90;99.90
27978;DHT22;15314;49.248;6.968;2023-07-29T01:53:38;20.00;99.90
27978;DHT22;15314;49.248;6.968;2023-07-29T01:54:38;20.00;99.90
27978;DHT22;15314;49.248;6.968;2023-07-29T01:55:40;20.00;99.90
27978;DHT22;15314;49.248;6.968;2023-07-29T01:56:40;20.10;99.90
27978;DHT22;15314;49.248;6.968;2023-07-29T01:57:41;20.10;99.90
27978;DHT22;15314;49.248;6.968;2023-07-29T01:58:42;20.10;99.90
27978;DHT22;15314;49.248;6.968;2023-07-29T01:59:43;20.10;99.90
27978;DHT22;15314;49.248;6.968;2023-07-29T02:00:44;20.10;99.90
27978;DHT22;15314;49.248;6.968;2023-07-29T02:01:44;20.10;99.90
27978;DHT22;15314;49.248;6.968;2023-07-29T02:02:47;20.10;99.90
27978;DHT22;15314;49.248;6.968;2023-07-29T02:03:47;20.10;99.90
27978;DHT22;15314;49.248;6.968;2023-07-29T02:04:54;20.10;99.90
27978;DHT22;15314;49.248;6.968;2023-07-29T02:05:56;20.10;99.90
27978;DHT22;15314;49.248;6.968;2023-07-29T02:06:56;20.10;99.90
27978;DHT22;15314;49.248;6.968;2023-07-29T02:07:57;20.10;99.90
27978;DHT22;15314;49.248;6.968;2023-07-29T02:08:58;20.10;99.90
27978;DHT22;15314;49.248;6.968;2023-07-29T02:09:58;20.10;99.90
27978;DHT22;15314;49.248;6.968;2023-07-29T02:10:59;20.20;99.90
27978;DHT22;15314;49.248;6.968;2023-07-29T02:12:00;20.20;99.90
27978;DHT22;15314;49.248;6.968;2023-07-29T02:13:01;20.30;99.90
27978;DHT22;15314;49.248;6.968;2023-07-29T02:14:01;20.30;99.90
27978;DHT22;15314;49.248;6.968;2023-07-29T02:15:03;20.30;99.90
27978;DHT22;15314;49.248;6.968;2023-07-29T02:16:04;20.30;99.90
27978;DHT22;15314;49.248;6.968;2023-07-29T02:17:04;20.30;99.90
27978;DHT22;15314;49.248;6.968;2023-07-29T02:18:05;20.30;99.90
27978;DHT22;15314;49.248;6.968;2023-07-29T02:19:06;20.30;99.90
27978;DHT22;15314;49.248;6.968;2023-07-29T02:20:07;20.40;99.90
27978;DHT22;15314;49.248;6.968;2023-07-29T02:21:09;20.30;99.90
27978;DHT22;15314;49.248;6.968;2023-07-29T02:22:12;20.30;99.90
27978;DHT22;15314;49.248;6.968;2023-07-29T02:23:13;20.20;99.90
27978;DHT22;15314;49.248;6.968;2023-07-29T02:24:14;20.20;99.90
27978;DHT22;15314;49.248;6.968;2023-07-29T02:25:14;20.20;99.90
27978;DHT22;15314;49.248;6.968;2023-07-29T02:26:16;20.20;99.90
27978;DHT22;15314;49.248;6.968;2023-07-29T02:27:17;20.20;99.90
27978;DHT22;15314;49.248;6.968;2023-07-29T02:28:17;20.30;99.90
27978;DHT22;15314;49.248;6.968;2023-07-29T02:29:18;20.30;99.90
27978;DHT22;15314;49.248;6.968;2023-07-29T02:30:19;20.30;99.90
27978;DHT22;15314;49.248;6.968;2023-07-29T02:31:23;20.30;99.90
27978;DHT22;15314;49.248;6.968;2023-07-29T02:32:24;20.30;99.90
27978;DHT22;15314;49.248;6.968;2023-07-29T02:33:25;20.30;99.90
27978;DHT22;15314;49.248;6.968;2023-07-29T02:34:26;20.20;99.90
27978;DHT22;15314;49.248;6.968;2023-07-29T02:35:27;20.20;99.90
27978;DHT22;15314;49.248;6.968;2023-07-29T02:36:28;20.20;99.90
27978;DHT22;15314;49.248;6.968;2023-07-29T02:37:28;20.20;99.90
27978;DHT22;15314;49.248;6.968;2023-07-29T02:38:29;20.20;99.90
27978;DHT22;15314;49.248;6.968;2023-07-29T02:39:30;20.20;99.90
27978;DHT22;15314;49.248;6.968;2023-07-29T02:40:31;20.20;99.90
27978;DHT22;15314;49.248;6.968;2023-07-29T02:41:31;20.20;99.90
27978;DHT22;15314;49.248;6.968;2023-07-29T02:42:32;20.20;99.90
27978;DHT22;15314;49.248;6.968;2023-07-29T02:43:32;20.20;99.90
27978;DHT22;15314;49.248;6.968;2023-07-29T02:44:33;20.30;99.90
27978;DHT22;15314;49.248;6.968;2023-07-29T02:45:34;20.30;99.90
27978;DHT22;15314;49.248;6.968;2023-07-29T02:46:34;20.30;99.90
27978;DHT22;15314;49.248;6.968;2023-07-29T02:47:37;20.30;99.90
27978;DHT22;15314;49.248;6.968;2023-07-29T02:48:37;20.30;99.90
27978;DHT22;15314;49.248;6.968;2023-07-29T02:49:38;20.30;99.90
27978;DHT22;15314;49.248;6.968;2023-07-29T02:50:38;20.30;99.90
27978;DHT22;15314;49.248;6.968;2023-07-29T02:51:39;20.30;99.90
27978;DHT22;15314;49.248;6.968;2023-07-29T02:52:40;20.30;99.90
27978;DHT22;15314;49.248;6.968;2023-07-29T02:53:40;20.20;99.90
27978;DHT22;15314;49.248;6.968;2023-07-29T02:54:41;20.20;99.90
27978;DHT22;15314;49.248;6.968;2023-07-29T02:55:42;20.20;99.90
27978;DHT22;15314;49.248;6.968;2023-07-29T02:56:42;20.20;99.90
27978;DHT22;15314;49.248;6.968;2023-07-29T02:57:43;20.20;99.90
27978;DHT22;15314;49.248;6.968;2023-07-29T02:58:44;20.10;99.90
27978;DHT22;15314;49.248;6.968;2023-07-29T02:59:45;20.10;99.90
27978;DHT22;15314;49.248;6.968;2023-07-29T03:00:45;20.10;99.90
27978;DHT22;15314;49.248;6.968;2023-07-29T03:01:48;20.10;99.90
27978;DHT22;15314;49.248;6.968;2023-07-29T03:02:50;20.10;99.90
27978;DHT22;15314;49.248;6.968;2023-07-29T03:03:50;20.10;99.90
27978;DHT22;15314;49.248;6.968;2023-07-29T03:04:51;20.10;99.90
27978;DHT22;15314;49.248;6.968;2023-07-29T03:06:01;20.10;99.90
27978;DHT22;15314;49.248;6.968;2023-07-29T03:07:02;20.10;99.90
27978;DHT22;15314;49.248;6.968;2023-07-29T03:08:03;20.20;99.90
27978;DHT22;15314;49.248;6.968;2023-07-29T03:09:03;20.20;99.90
27978;DHT22;15314;49.248;6.968;2023-07-29T03:10:05;20.20;99.90
27978;DHT22;15314;49.248;6.968;2023-07-29T03:11:12;20.20;99.90
27978;DHT22;15314;49.248;6.968;2023-07-29T03:12:13;20.30;99.90
27978;DHT22;15314;49.248;6.968;2023-07-29T03:13:13;20.20;99.90
27978;DHT22;15314;49.248;6.968;2023-07-29T03:14:14;20.20;99.90
27978;DHT22;15314;49.248;6.968;2023-07-29T03:15:14;20.20;99.90
27978;DHT22;15314;49.248;6.968;2023-07-29T03:16:17;20.10;99.90
27978;DHT22;15314;49.248;6.968;2023-07-29T03:17:18;20.10;99.90
27978;DHT22;15314;49.248;6.968;2023-07-29T03:18:18;20.10;99.90
27978;DHT22;15314;49.248;6.968;2023-07-29T03:19:19;20.20;99.90
27978;DHT22;15314;49.248;6.968;2023-07-29T03:20:20;20.20;99.90
27978;DHT22;15314;49.248;6.968;2023-07-29T03:21:20;20.20;99.90
27978;DHT22;15314;49.248;6.968;2023-07-29T03:22:21;20.20;99.90
27978;DHT22;15314;49.248;6.968;2023-07-29T03:23:22;20.20;99.90
27978;DHT22;15314;49.248;6.968;2023-07-29T03:24:22;20.20;99.90
27978;DHT22;15314;49.248;6.968;2023-07-29T03:25:23;20.10;99.90
27978;DHT22;15314;49.248;6.968;2023-07-29T03:26:24;20.10;99.90
27978;DHT22;15314;49.248;6.968;2023-07-29T03:27:25;20.10;99.90
27978;DHT22;15314;49.248;6.968;2023-07-29T03:28:28;20.00;99.90
27978;DHT22;15314;49.248;6.968;2023-07-29T03:29:28;19.90;99.90
27978;DHT22;15314;49.248;6.968;2023-07-29T03:30:29;19.90;99.90
27978;DHT22;15314;49.248;6.968;2023-07-29T03:31:30;19.90;99.90
27978;DHT22;15314;49.248;6.968;2023-07-29T03:32:30;19.90;99.90
27978;DHT22;15314;49.248;6.968;2023-07-29T03:33:31;19.90;99.90
27978;DHT22;15314;49.248;6.968;2023-07-29T03:34:32;19.90;99.90
27978;DHT22;15314;49.248;6.968;2023-07-29T03:35:33;19.90;99.90
27978;DHT22;15314;49.248;6.968;2023-07-29T03:36:33;19.90;99.90
27978;DHT22;15314;49.248;6.968;2023-07-29T03:37:34;19.90;99.90
27978;DHT22;15314;49.248;6.968;2023-07-29T03:38:35;20.00;99.90
27978;DHT22;15314;49.248;6.968;2023-07-29T03:39:40;20.00;99.90
27978;DHT22;15314;49.248;6.968;2023-07-29T03:40:41;20.00;99.90
27978;DHT22;15314;49.248;6.968;2023-07-29T03:41:42;20.00;99.90
27978;DHT22;15314;49.248;6.968;2023-07-29T03:42:43;20.00;99.90
27978;DHT22;15314;49.248;6.968;2023-07-29T03:43:43;20.00;99.90
27978;DHT22;15314;49.248;6.968;2023-07-29T03:44:44;20.00;99.90
27978;DHT22;15314;49.248;6.968;2023-07-29T03:45:45;20.00;99.90
27978;DHT22;15314;49.248;6.968;2023-07-29T03:46:45;20.00;99.90
27978;DHT22;15314;49.248;6.968;2023-07-29T03:47:46;20.00;99.90
27978;DHT22;15314;49.248;6.968;2023-07-29T03:48:47;20.00;99.90
27978;DHT22;15314;49.248;6.968;2023-07-29T03:49:48;20.00;99.90
27978;DHT22;15314;49.248;6.968;2023-07-29T03:50:49;20.00;99.90
27978;DHT22;15314;49.248;6.968;2023-07-29T03:51:49;20.00;99.90
27978;DHT22;15314;49.248;6.968;2023-07-29T03:52:50;20.00;99.90
27978;DHT22;15314;49.248;6.968;2023-07-29T03:53:51;19.90;99.90
27978;DHT22;15314;49.248;6.968;2023-07-29T03:54:52;19.90;99.90
27978;DHT22;15314;49.248;6.968;2023-07-29T03:55:52;19.90;99.90
27978;DHT22;15314;49.248;6.968;2023-07-29T03:56:53;19.90;99.90
27978;DHT22;15314;49.248;6.968;2023-07-29T03:57:53;19.90;99.90
27978;DHT22;15314;49.248;6.968;2023-07-29T03:59:02;19.90;99.90
27978;DHT22;15314;49.248;6.968;2023-07-29T04:00:04;19.90;99.90
27978;DHT22;15314;49.248;6.968;2023-07-29T04:01:05;19.90;99.90
27978;DHT22;15314;49.248;6.968;2023-07-29T04:02:06;19.90;99.90
27978;DHT22;15314;49.248;6.968;2023-07-29T04:03:06;19.90;99.90
27978;DHT22;15314;49.248;6.968;2023-07-29T04:04:07;20.00;99.90
27978;DHT22;15314;49.248;6.968;2023-07-29T04:05:08;20.00;99.90
27978;DHT22;15314;49.248;6.968;2023-07-29T04:06:09;20.00;99.90
27978;DHT22;15314;49.248;6.968;2023-07-29T04:07:10;19.90;99.90
27978;DHT22;15314;49.248;6.968;2023-07-29T04:08:10;19.90;99.90
27978;DHT22;15314;49.248;6.968;2023-07-29T04:09:11;19.90;99.90
27978;DHT22;15314;49.248;6.968;2023-07-29T04:10:12;19.90;99.90
27978;DHT22;15314;49.248;6.968;2023-07-29T04:11:12;19.90;99.90
27978;DHT22;15314;49.248;6.968;2023-07-29T04:12:13;19.80;99.90
27978;DHT22;15314;49.248;6.968;2023-07-29T04:13:13;19.80;99.90
27978;DHT22;15314;49.248;6.968;2023-07-29T04:14:14;19.80;99.90
27978;DHT22;15314;49.248;6.968;2023-07-29T04:15:15;19.80;99.90
27978;DHT22;15314;49.248;6.968;2023-07-29T04:16:16;19.80;99.90
27978;DHT22;15314;49.248;6.968;2023-07-29T04:17:17;19.70;99.90
27978;DHT22;15314;49.248;6.968;2023-07-29T04:18:17;19.70;99.90
27978;DHT22;15314;49.248;6.968;2023-07-29T04:19:18;19.70;99.90
27978;DHT22;15314;49.248;6.968;2023-07-29T04:20:19;19.70;99.90
27978;DHT22;15314;49.248;6.968;2023-07-29T04:21:19;19.80;99.90
27978;DHT22;15314;49.248;6.968;2023-07-29T04:22:20;19.70;99.90
27978;DHT22;15314;49.248;6.968;2023-07-29T04:23:21;19.70;99.90
27978;DHT22;15314;49.248;6.968;2023-07-29T04:24:21;19.70;99.90
27978;DHT22;15314;49.248;6.968;2023-07-29T04:25:23;19.70;99.90
27978;DHT22;15314;49.248;6.968;2023-07-29T04:26:24;19.60;99.90
27978;DHT22;15314;49.248;6.968;2023-07-29T04:27:24;19.70;99.90
27978;DHT22;15314;49.248;6.968;2023-07-29T04:28:25;19.60;99.90
27978;DHT22;15314;49.248;6.968;2023-07-29T04:29:26;19.60;99.90
27978;DHT22;15314;49.248;6.968;2023-07-29T04:30:26;19.60;99.90
27978;DHT22;15314;49.248;6.968;2023-07-29T04:31:27;19.60;99.90
27978;DHT22;15314;49.248;6.968;2023-07-29T04:32:28;19.60;99.90
27978;DHT22;15314;49.248;6.968;2023-07-29T04:33:31;19.60;99.90
27978;DHT22;15314;49.248;6.968;2023-07-29T04:34:32;19.60;99.90
27978;DHT22;15314;49.248;6.968;2023-07-29T04:35:33;19.70;99.90
27978;DHT22;15314;49.248;6.968;2023-07-29T04:36:33;19.70;99.90
27978;DHT22;15314;49.248;6.968;2023-07-29T04:37:34;19.70;99.90
27978;DHT22;15314;49.248;6.968;2023-07-29T04:38:37;19.80;99.90
27978;DHT22;15314;49.248;6.968;2023-07-29T04:39:37;19.70;99.90
27978;DHT22;15314;49.248;6.968;2023-07-29T04:40:38;19.80;99.90
27978;DHT22;15314;49.248;6.968;2023-07-29T04:41:39;19.80;99.90
27978;DHT22;15314;49.248;6.968;2023-07-29T04:42:39;19.80;99.90
27978;DHT22;15314;49.248;6.968;2023-07-29T04:43:40;19.80;99.90
27978;DHT22;15314;49.248;6.968;2023-07-29T04:44:41;19.70;99.90
27978;DHT22;15314;49.248;6.968;2023-07-29T04:45:43;19.80;99.90
27978;DHT22;15314;49.248;6.968;2023-07-29T04:46:44;19.80;99.90
27978;DHT22;15314;49.248;6.968;2023-07-29T04:47:45;19.80;99.90
27978;DHT22;15314;49.248;6.968;2023-07-29T04:48:45;19.80;99.90
27978;DHT22;15314;49.248;6.968;2023-07-29T04:49:46;19.80;99.90
27978;DHT22;15314;49.248;6.968;2023-07-29T04:50:46;19.80;99.90
27978;DHT22;15314;49.248;6.968;2023-07-29T04:51:47;19.80;99.90
27978;DHT22;15314;49.248;6.968;2023-07-29T04:52:48;19.80;99.90
27978;DHT22;15314;49.248;6.968;2023-07-29T04:53:48;19.80;99.90
27978;DHT22;15314;49.248;6.968;2023-07-29T04:54:49;19.70;99.90
27978;DHT22;15314;49.248;6.968;2023-07-29T04:55:50;19.70;99.90
27978;DHT22;15314;49.248;6.968;2023-07-29T04:56:50;19.80;99.90
27978;DHT22;15314;49.248;6.968;2023-07-29T04:57:51;19.80;99.90
27978;DHT22;15314;49.248;6.968;2023-07-29T04:58:52;19.80;99.90
27978;DHT22;15314;49.248;6.968;2023-07-29T04:59:53;19.80;99.90
27978;DHT22;15314;49.248;6.968;2023-07-29T05:00:54;19.90;99.90
27978;DHT22;15314;49.248;6.968;2023-07-29T05:01:54;19.90;99.90
27978;DHT22;15314;49.248;6.968;2023-07-29T05:02:55;19.90;99.90
27978;DHT22;15314;49.248;6.968;2023-07-29T05:03:55;19.90;99.90
27978;DHT22;15314;49.248;6.968;2023-07-29T05:04:56;20.00;99.90
27978;DHT22;15314;49.248;6.968;2023-07-29T05:05:58;20.00;99.90
27978;DHT22;15314;49.248;6.968;2023-07-29T05:06:59;20.00;99.90
27978;DHT22;15314;49.248;6.968;2023-07-29T05:08:00;20.00;99.90
27978;DHT22;15314;49.248;6.968;2023-07-29T05:09:16;20.00;99.90
27978;DHT22;15314;49.248;6.968;2023-07-29T05:10:18;20.00;99.90
27978;DHT22;15314;49.248;6.968;2023-07-29T05:11:19;20.00;99.90
27978;DHT22;15314;49.248;6.968;2023-07-29T05:12:19;20.00;99.90
27978;DHT22;15314;49.248;6.968;2023-07-29T05:13:20;20.00;99.90
27978;DHT22;15314;49.248;6.968;2023-07-29T05:14:21;20.00;99.90
27978;DHT22;15314;49.248;6.968;2023-07-29T05:15:22;19.90;99.90
27978;DHT22;15314;49.248;6.968;2023-07-29T05:16:22;20.00;99.90
27978;DHT22;15314;49.248;6.968;2023-07-29T05:17:23;20.00;99.90
27978;DHT22;15314;49.248;6.968;2023-07-29T05:18:24;19.90;99.90
27978;DHT22;15314;49.248;6.968;2023-07-29T05:19:24;20.00;99.90
27978;DHT22;15314;49.248;6.968;2023-07-29T05:20:25;20.00;99.90
27978;DHT22;15314;49.248;6.968;2023-07-29T05:21:26;20.00;99.90
27978;DHT22;15314;49.248;6.968;2023-07-29T05:22:26;20.00;99.90
27978;DHT22;15314;49.248;6.968;2023-07-29T05:23:27;20.00;99.90
27978;DHT22;15314;49.248;6.968;2023-07-29T05:24:27;20.00;99.90
27978;DHT22;15314;49.248;6.968;2023-07-29T05:25:28;20.00;99.90
27978;DHT22;15314;49.248;6.968;2023-07-29T05:26:29;20.00;99.90
27978;DHT22;15314;49.248;6.968;2023-07-29T05:27:30;20.00;99.90
27978;DHT22;15314;49.248;6.968;2023-07-29T05:28:30;20.00;99.90
27978;DHT22;15314;49.248;6.968;2023-07-29T05:29:31;20.00;99.90
27978;DHT22;15314;49.248;6.968;2023-07-29T05:30:32;20.00;99.90
27978;DHT22;15314;49.248;6.968;2023-07-29T05:31:37;20.10;99.90
27978;DHT22;15314;49.248;6.968;2023-07-29T05:32:38;20.10;99.90
27978;DHT22;15314;49.248;6.968;2023-07-29T05:33:38;20.10;99.90
27978;DHT22;15314;49.248;6.968;2023-07-29T05:34:39;20.10;99.90
27978;DHT22;15314;49.248;6.968;2023-07-29T05:35:40;20.00;99.90
27978;DHT22;15314;49.248;6.968;2023-07-29T05:36:40;20.10;99.90
27978;DHT22;15314;49.248;6.968;2023-07-29T05:37:41;20.10;99.90
27978;DHT22;15314;49.248;6.968;2023-07-29T05:38:42;20.10;99.90
27978;DHT22;15314;49.248;6.968;2023-07-29T05:39:42;20.10;99.90
27978;DHT22;15314;49.248;6.968;2023-07-29T05:40:43;20.10;99.90
27978;DHT22;15314;49.248;6.968;2023-07-29T05:41:44;20.10;99.90
27978;DHT22;15314;49.248;6.968;2023-07-29T05:42:45;20.10;99.90
27978;DHT22;15314;49.248;6.968;2023-07-29T05:43:45;20.10;99.90
27978;DHT22;15314;49.248;6.968;2023-07-29T05:44:47;20.10;99.90
27978;DHT22;15314;49.248;6.968;2023-07-29T05:45:47;20.10;99.90
27978;DHT22;15314;49.248;6.968;2023-07-29T05:46:48;20.10;99.90
27978;DHT22;15314;49.248;6.968;2023-07-29T05:47:49;20.20;99.90
27978;DHT22;15314;49.248;6.968;2023-07-29T05:48:50;20.10;99.90
27978;DHT22;15314;49.248;6.968;2023-07-29T05:49:50;20.10;99.90
27978;DHT22;15314;49.248;6.968;2023-07-29T05:50:51;20.10;99.90
27978;DHT22;15314;49.248;6.968;2023-07-29T05:51:51;20.00;99.90
27978;DHT22;15314;49.248;6.968;2023-07-29T05:52:53;20.10;99.90
27978;DHT22;15314;49.248;6.968;2023-07-29T05:53:54;20.10;99.90
27978;DHT22;15314;49.248;6.968;2023-07-29T05:54:54;20.10;99.90
27978;DHT22;15314;49.248;6.968;2023-07-29T05:55:55;20.10;99.90
27978;DHT22;15314;49.248;6.968;2023-07-29T05:56:55;20.10;99.90
27978;DHT22;15314;49.248;6.968;2023-07-29T05:57:56;20.10;99.90
27978;DHT22;15314;49.248;6.968;2023-07-29T05:58:58;20.10;99.90
27978;DHT22;15314;49.248;6.968;2023-07-29T05:59:58;20.10;99.90
27978;DHT22;15314;49.248;6.968;2023-07-29T06:00:59;20.20;99.90
27978;DHT22;15314;49.248;6.968;2023-07-29T06:02:00;20.20;99.90
27978;DHT22;15314;49.248;6.968;2023-07-29T06:03:00;20.30;99.90
27978;DHT22;15314;49.248;6.968;2023-07-29T06:04:01;20.40;99.90
27978;DHT22;15314;49.248;6.968;2023-07-29T06:05:01;20.50;99.90
27978;DHT22;15314;49.248;6.968;2023-07-29T06:06:04;20.60;99.90
27978;DHT22;15314;49.248;6.968;2023-07-29T06:07:05;20.80;99.90
27978;DHT22;15314;49.248;6.968;2023-07-29T06:08:06;20.80;99.90
27978;DHT22;15314;49.248;6.968;2023-07-29T06:09:08;20.80;99.90
27978;DHT22;15314;49.248;6.968;2023-07-29T06:10:10;20.90;99.90
27978;DHT22;15314;49.248;6.968;2023-07-29T06:11:13;21.00;99.90
27978;DHT22;15314;49.248;6.968;2023-07-29T06:12:14;21.00;99.90
27978;DHT22;15314;49.248;6.968;2023-07-29T06:13:15;21.00;99.90
27978;DHT22;15314;49.248;6.968;2023-07-29T06:14:15;21.00;99.90
27978;DHT22;15314;49.248;6.968;2023-07-29T06:15:16;21.00;99.90
27978;DHT22;15314;49.248;6.968;2023-07-29T06:16:17;21.00;99.90
27978;DHT22;15314;49.248;6.968;2023-07-29T06:17:18;21.00;99.90
27978;DHT22;15314;49.248;6.968;2023-07-29T06:18:19;21.00;99.90
27978;DHT22;15314;49.248;6.968;2023-07-29T06:19:20;21.10;99.90
27978;DHT22;15314;49.248;6.968;2023-07-29T06:20:21;21.20;99.90
27978;DHT22;15314;49.248;6.968;2023-07-29T06:21:21;21.40;99.90
27978;DHT22;15314;49.248;6.968;2023-07-29T06:22:22;21.60;99.90
27978;DHT22;15314;49.248;6.968;2023-07-29T06:23:23;21.80;99.90
27978;DHT22;15314;49.248;6.968;2023-07-29T06:24:23;21.80;99.90
27978;DHT22;15314;49.248;6.968;2023-07-29T06:25:24;22.10;99.90
27978;DHT22;15314;49.248;6.968;2023-07-29T06:26:25;22.10;99.90
27978;DHT22;15314;49.248;6.968;2023-07-29T06:27:25;22.10;99.90
27978;DHT22;15314;49.248;6.968;2023-07-29T06:28:26;22.20;99.90
27978;DHT22;15314;49.248;6.968;2023-07-29T06:29:27;22.20;99.90
27978;DHT22;15314;49.248;6.968;2023-07-29T06:30:27;22.20;99.90
27978;DHT22;15314;49.248;6.968;2023-07-29T06:31:28;22.10;99.90
27978;DHT22;15314;49.248;6.968;2023-07-29T06:32:29;22.00;99.90
27978;DHT22;15314;49.248;6.968;2023-07-29T06:33:30;21.90;99.90